Terminal Aerodrome Forecast
Issued by NWS Missoula, MT

Home | Current Version | Previous Version | Text Only | Print | Product List | Glossary On
Versions: 1 2 3 4 5 6 7 8 9 10 11 12 13 14 15 16 17 18 19 20
000
FTUS45 KMSO 220500
TAFGPI
TAF
KGPI 220534Z 2206/2306 03008G18KT P6SM BKN050
     FM221800 02010KT P6SM -SHRA VCTS BKN030 OVC050CB
     FM230300 02012G22KT P6SM VCSH OVC040=

USA.gov is the U.S. government's official web portal to all federal, state and local government web resources and services.